Time;durP1;ratioP1;P1;durP2;ratioP2;P2;SDS_P1;SDS_P2;PMS_P1;PMS_P2;Temp;Humidity;BMP_temperature;BMP_pressure;BME280_temperature;BME280_humidity;BME280_pressure;Samples;Min_cycle;Max_cycle;Signal;HPM_P1;HPM_P2
2020/12/17 00:00:20;;;;;;;8.25;4.63;;;8.30;99.90;;;;;;5062749;28;20025;-78
2020/12/17 00:02:46;;;;;;;10.23;5.32;;;8.30;99.90;;;;;;5062319;28;20025;-78
2020/12/17 00:05:12;;;;;;;9.43;4.90;;;8.30;99.90;;;;;;5065930;28;20056;-77
2020/12/17 00:07:39;;;;;;;9.63;5.00;;;8.30;99.90;;;;;;5066649;28;20093;-78
2020/12/17 00:10:09;;;;;;;10.55;5.80;;;8.30;99.90;;;;;;5067638;28;20021;-78
2020/12/17 00:12:36;;;;;;;10.95;5.63;;;8.20;99.90;;;;;;5066294;28;20025;-77
2020/12/17 00:15:04;;;;;;;11.15;5.75;;;8.20;99.90;;;;;;5066464;28;20021;-78
2020/12/17 00:17:29;;;;;;;7.82;4.43;;;8.20;99.90;;;;;;5065967;28;20377;-78
2020/12/17 00:19:55;;;;;;;10.98;4.68;;;8.20;99.90;;;;;;5066300;28;20084;-77
2020/12/17 00:22:20;;;;;;;7.95;4.50;;;8.20;99.90;;;;;;5066137;28;20029;-78
2020/12/17 00:24:46;;;;;;;11.55;5.82;;;8.20;99.90;;;;;;5066271;28;20024;-79
2020/12/17 00:27:12;;;;;;;10.13;4.95;;;8.20;99.90;;;;;;5066521;28;20119;-78
2020/12/17 00:29:37;;;;;;;8.10;4.72;;;8.20;99.90;;;;;;5066230;28;20021;-78
2020/12/17 00:32:03;;;;;;;10.80;5.78;;;8.20;99.90;;;;;;5066135;28;20504;-77
2020/12/17 00:34:28;;;;;;;8.20;4.57;;;8.20;99.90;;;;;;5067499;28;20017;-79
2020/12/17 00:36:54;;;;;;;11.30;5.28;;;8.20;99.90;;;;;;5066064;28;20068;-78
2020/12/17 00:39:20;;;;;;;8.35;4.70;;;8.20;99.90;;;;;;5065774;28;20024;-77
2020/12/17 00:41:47;;;;;;;10.07;5.70;;;8.20;99.90;;;;;;5067279;28;20025;-78
2020/12/17 00:44:12;;;;;;;10.65;6.30;;;8.20;99.90;;;;;;5065823;28;20023;-78
2020/12/17 00:46:38;;;;;;;8.68;4.90;;;8.20;99.90;;;;;;5067016;28;20069;-77
2020/12/17 00:49:03;;;;;;;12.00;5.13;;;8.20;99.90;;;;;;5067151;28;20100;-77
2020/12/17 00:51:29;;;;;;;15.23;5.53;;;8.30;99.90;;;;;;5065904;28;20025;-78
2020/12/17 00:53:55;;;;;;;12.68;6.10;;;8.20;99.90;;;;;;5065559;28;20021;-78
2020/12/17 00:56:20;;;;;;;9.90;5.05;;;8.20;99.90;;;;;;5066915;28;20040;-77
2020/12/17 00:58:46;;;;;;;8.07;4.90;;;8.30;99.90;;;;;;5066949;28;20017;-78
2020/12/17 01:01:11;;;;;;;7.22;4.40;;;8.30;99.90;;;;;;5065613;28;20025;-76
2020/12/17 01:03:37;;;;;;;10.77;4.80;;;8.30;99.90;;;;;;5065165;28;20017;-77
2020/12/17 01:06:07;;;;;;;10.43;4.30;;;8.30;99.90;;;;;;5066965;28;20040;-77
2020/12/17 01:08:34;;;;;;;12.93;5.43;;;8.30;99.90;;;;;;5065365;28;20029;-77
2020/12/17 01:11:00;;;;;;;12.10;6.10;;;8.30;99.90;;;;;;5065449;28;20484;-77
2020/12/17 01:13:25;;;;;;;9.85;5.88;;;8.30;99.90;;;;;;5066487;28;20047;-77
2020/12/17 01:15:51;;;;;;;6.78;3.60;;;8.30;99.90;;;;;;5065996;28;20040;-79
2020/12/17 01:18:16;;;;;;;13.20;5.30;;;8.30;99.90;;;;;;5065287;28;20018;-77
2020/12/17 01:20:42;;;;;;;8.20;5.15;;;8.30;99.90;;;;;;5066552;28;20021;-78
2020/12/17 01:23:08;;;;;;;8.88;4.82;;;8.30;99.90;;;;;;5065190;28;20032;-77
2020/12/17 01:25:33;;;;;;;13.48;6.28;;;8.40;99.90;;;;;;5065204;28;20032;-78
2020/12/17 01:27:59;;;;;;;8.27;4.40;;;8.30;99.90;;;;;;5066304;28;20081;-78
2020/12/17 01:30:25;;;;;;;11.07;5.00;;;8.30;99.90;;;;;;5066245;28;20021;-77
2020/12/17 01:32:52;;;;;;;12.20;5.10;;;8.30;99.90;;;;;;5066193;28;20025;-77
2020/12/17 01:35:18;;;;;;;11.57;4.75;;;8.30;99.90;;;;;;5064854;28;20107;-78
2020/12/17 01:37:43;;;;;;;12.10;4.95;;;8.30;99.90;;;;;;5064934;28;20461;-78
2020/12/17 01:40:09;;;;;;;8.80;5.03;;;8.30;99.90;;;;;;5066306;28;20079;-77
2020/12/17 01:42:35;;;;;;;9.57;5.55;;;8.30;99.90;;;;;;5064641;28;20029;-77
2020/12/17 01:45:00;;;;;;;10.30;4.45;;;8.30;99.90;;;;;;5065992;28;20033;-77
2020/12/17 01:47:34;;;;;;;6.80;4.15;;;8.30;99.90;;;;;;5064571;28;20025;-77
2020/12/17 01:50:03;;;;;;;10.40;4.85;;;8.30;99.90;;;;;;5064574;28;20029;-76
2020/12/17 01:52:29;;;;;;;12.15;5.05;;;8.30;99.90;;;;;;5064408;28;20424;-77
2020/12/17 01:54:54;;;;;;;14.38;6.13;;;8.30;99.90;;;;;;5064360;28;20025;-77
2020/12/17 01:57:22;;;;;;;7.45;5.03;;;8.30;99.90;;;;;;5064270;28;20043;-77
2020/12/17 01:59:54;;;;;;;9.35;5.00;;;8.30;99.90;;;;;;5065784;28;20044;-77
2020/12/17 02:02:23;;;;;;;8.60;4.80;;;8.30;99.90;;;;;;5064394;28;20025;-79
2020/12/17 02:04:49;;;;;;;10.65;5.95;;;8.30;99.90;;;;;;5065561;28;20056;-78
2020/12/17 02:07:15;;;;;;;9.65;5.10;;;8.20;99.90;;;;;;5064142;28;20025;-78
2020/12/17 02:09:40;;;;;;;13.57;5.20;;;8.20;99.90;;;;;;5064348;28;20028;-77
2020/12/17 02:12:08;;;;;;;10.63;5.05;;;8.30;99.90;;;;;;5065452;28;20055;-77
2020/12/17 02:14:33;;;;;;;12.10;5.32;;;8.20;99.90;;;;;;5065532;28;20021;-77
2020/12/17 02:16:59;;;;;;;8.30;4.47;;;8.20;99.90;;;;;;5064145;28;20029;-78
2020/12/17 02:19:24;;;;;;;10.45;5.72;;;8.20;99.90;;;;;;5064351;28;20056;-78
2020/12/17 02:21:50;;;;;;;11.45;5.60;;;8.20;99.90;;;;;;5065354;28;20025;-77
2020/12/17 02:24:25;;;;;;;16.50;5.70;;;8.20;99.90;;;;;;5063839;28;20017;-79
2020/12/17 02:26:51;;;;;;;13.35;6.05;;;8.20;99.90;;;;;;5063314;28;20036;-78
2020/12/17 02:29:17;;;;;;;12.27;5.00;;;8.10;99.90;;;;;;5065388;28;20021;-78
2020/12/17 02:31:43;;;;;;;14.00;5.53;;;8.10;99.90;;;;;;5065286;28;20021;-79
2020/12/17 02:34:10;;;;;;;11.15;5.20;;;8.10;99.90;;;;;;5065409;28;20031;-78
2020/12/17 02:36:35;;;;;;;9.93;5.40;;;8.10;99.90;;;;;;5063602;28;20032;-78
2020/12/17 02:39:01;;;;;;;14.27;6.10;;;8.10;99.90;;;;;;5064990;28;20029;-78
2020/12/17 02:41:26;;;;;;;9.15;4.90;;;8.10;99.90;;;;;;5063600;28;20339;-78
2020/12/17 02:43:52;;;;;;;12.05;5.55;;;8.10;99.90;;;;;;5063570;28;20043;-79
2020/12/17 02:46:19;;;;;;;11.55;5.57;;;8.10;99.90;;;;;;5064899;28;20025;-79
2020/12/17 02:48:52;;;;;;;12.75;5.57;;;8.10;99.90;;;;;;5063733;28;20025;-78
2020/12/17 02:51:19;;;;;;;10.57;5.53;;;8.10;99.90;;;;;;5063575;28;20028;-78
2020/12/17 02:53:45;;;;;;;12.45;5.60;;;8.00;99.90;;;;;;5063628;28;20449;-78
2020/12/17 02:56:15;;;;;;;13.65;5.78;;;8.00;99.90;;;;;;5063694;28;20032;-78
2020/12/17 02:58:41;;;;;;;12.20;5.72;;;8.00;99.90;;;;;;5063625;28;20033;-78
2020/12/17 03:01:07;;;;;;;11.63;6.22;;;8.00;99.90;;;;;;5063392;28;20032;-77
2020/12/17 03:03:33;;;;;;;8.00;4.55;;;8.00;99.90;;;;;;5064523;28;20029;-78
2020/12/17 03:05:58;;;;;;;13.90;5.78;;;8.00;99.90;;;;;;5063444;28;20047;-78
2020/12/17 03:08:26;;;;;;;14.80;6.18;;;8.00;99.90;;;;;;5063230;28;20021;-78
2020/12/17 03:10:55;;;;;;;8.85;4.85;;;8.00;99.90;;;;;;5063106;28;20013;-78
2020/12/17 03:13:21;;;;;;;11.00;5.85;;;8.00;99.90;;;;;;5064635;28;20025;-78
2020/12/17 03:15:47;;;;;;;12.80;5.85;;;8.00;99.90;;;;;;5063307;28;20033;-78
2020/12/17 03:18:12;;;;;;;9.98;5.53;;;8.00;99.90;;;;;;5063382;28;20048;-79
2020/12/17 03:20:38;;;;;;;9.40;5.15;;;8.00;99.90;;;;;;5063732;28;20021;-78
2020/12/17 03:23:04;;;;;;;12.35;6.18;;;8.00;99.90;;;;;;5063195;28;20021;-79
2020/12/17 03:25:29;;;;;;;13.43;5.30;;;8.00;99.90;;;;;;5063179;28;20017;-78
2020/12/17 03:27:55;;;;;;;13.95;6.95;;;8.00;99.90;;;;;;5063310;28;20067;-79
2020/12/17 03:30:20;;;;;;;13.77;5.88;;;8.00;99.90;;;;;;5064480;28;20021;-78
2020/12/17 03:32:46;;;;;;;11.63;5.25;;;8.00;99.90;;;;;;5063673;28;20044;-80
2020/12/17 03:35:11;;;;;;;16.10;6.63;;;8.00;99.90;;;;;;5065372;28;20464;-78
2020/12/17 03:37:37;;;;;;;11.55;5.85;;;7.90;99.90;;;;;;5064892;28;20039;-78
2020/12/17 03:40:03;;;;;;;10.32;5.15;;;8.00;99.90;;;;;;5068471;28;20032;-79
2020/12/17 03:42:29;;;;;;;9.35;5.32;;;8.00;99.90;;;;;;5066929;28;20096;-78
2020/12/17 03:44:54;;;;;;;9.88;5.85;;;8.00;99.90;;;;;;5066905;28;20017;-78
2020/12/17 03:47:20;;;;;;;13.23;5.97;;;7.90;99.90;;;;;;5066615;28;20055;-79
2020/12/17 03:49:45;;;;;;;11.80;6.07;;;8.00;99.90;;;;;;5066938;28;20107;-79
2020/12/17 03:52:11;;;;;;;15.90;6.53;;;8.00;99.90;;;;;;5067212;28;20040;-78
2020/12/17 03:54:37;;;;;;;12.60;6.40;;;8.00;99.90;;;;;;5068144;28;20032;-79
2020/12/17 03:57:02;;;;;;;16.02;6.55;;;8.00;99.90;;;;;;5068110;28;20032;-78
2020/12/17 03:59:28;;;;;;;12.90;6.78;;;8.00;99.90;;;;;;5066587;28;20025;-78
2020/12/17 04:01:53;;;;;;;13.40;6.50;;;8.00;99.90;;;;;;5066643;28;20036;-78
2020/12/17 04:04:19;;;;;;;12.65;7.15;;;7.90;99.90;;;;;;5067667;28;20052;-79
2020/12/17 04:06:44;;;;;;;10.15;6.05;;;8.00;99.90;;;;;;5068098;28;20021;-79
2020/12/17 04:09:10;;;;;;;11.05;4.47;;;8.00;99.90;;;;;;5067890;28;20021;-78
2020/12/17 04:11:36;;;;;;;14.15;7.10;;;8.00;99.90;;;;;;5066327;28;20005;-78
2020/12/17 04:14:01;;;;;;;15.05;6.63;;;8.00;99.90;;;;;;5066331;28;20009;-78
2020/12/17 04:16:27;;;;;;;12.02;5.85;;;8.00;99.90;;;;;;5066245;28;20507;-79
2020/12/17 04:18:52;;;;;;;15.48;6.78;;;8.00;99.90;;;;;;5067633;28;20021;-78
2020/12/17 04:21:18;;;;;;;16.70;5.85;;;8.00;99.90;;;;;;5067615;28;20104;-78
2020/12/17 04:23:44;;;;;;;13.10;6.20;;;8.00;99.90;;;;;;5067512;28;20484;-78
2020/12/17 04:26:13;;;;;;;13.63;5.85;;;8.00;99.90;;;;;;5066264;28;20025;-77
2020/12/17 04:28:39;;;;;;;17.83;7.45;;;8.00;99.90;;;;;;5067546;28;20052;-78
2020/12/17 04:31:05;;;;;;;16.80;7.22;;;8.00;99.90;;;;;;5067386;28;20041;-77
2020/12/17 04:33:30;;;;;;;16.30;7.32;;;8.10;99.90;;;;;;5067350;28;20025;-78
2020/12/17 04:35:56;;;;;;;11.90;6.05;;;8.00;99.90;;;;;;5066091;28;20039;-78
2020/12/17 04:38:21;;;;;;;10.13;6.25;;;8.00;99.90;;;;;;5067116;28;20080;-79
2020/12/17 04:40:47;;;;;;;10.57;5.88;;;8.00;99.90;;;;;;5067493;28;20017;-78
2020/12/17 04:43:13;;;;;;;24.08;6.63;;;8.10;99.90;;;;;;5066052;28;20036;-78
2020/12/17 04:45:39;;;;;;;8.77;5.13;;;8.10;99.90;;;;;;5066155;28;20104;-78
2020/12/17 04:48:06;;;;;;;14.02;6.63;;;8.00;99.90;;;;;;5065702;28;20032;-77
2020/12/17 04:50:33;;;;;;;10.63;6.43;;;8.10;99.90;;;;;;5066430;28;20028;-77
2020/12/17 04:53:02;;;;;;;11.00;5.95;;;8.00;99.90;;;;;;5067264;28;20017;-77
2020/12/17 04:55:29;;;;;;;14.93;6.32;;;8.00;99.90;;;;;;5066855;28;20028;-78
2020/12/17 04:57:59;;;;;;;12.20;6.40;;;8.00;99.90;;;;;;5066921;28;20037;-78
2020/12/17 05:00:24;;;;;;;13.95;6.18;;;8.10;99.90;;;;;;5066650;28;20021;-78
2020/12/17 05:02:55;;;;;;;13.90;6.68;;;8.00;99.90;;;;;;5066857;28;20044;-78
2020/12/17 05:05:21;;;;;;;13.60;6.35;;;8.00;99.90;;;;;;5065387;28;20045;-78
2020/12/17 05:07:46;;;;;;;15.75;6.65;;;8.10;99.90;;;;;;5065348;28;20083;-78
2020/12/17 05:10:12;;;;;;;13.32;6.93;;;8.00;99.90;;;;;;5066923;28;20025;-78
2020/12/17 05:12:37;;;;;;;13.90;6.93;;;8.00;99.90;;;;;;5066566;28;20043;-79
2020/12/17 05:15:04;;;;;;;11.50;5.63;;;8.10;99.90;;;;;;5065380;28;20041;-78
2020/12/17 05:17:31;;;;;;;12.38;7.03;;;8.10;99.90;;;;;;5066271;28;20032;-78
2020/12/17 05:19:57;;;;;;;14.23;6.72;;;8.00;99.90;;;;;;5065237;28;20029;-78
2020/12/17 05:22:24;;;;;;;9.52;5.57;;;8.10;99.90;;;;;;5065160;28;20092;-78
2020/12/17 05:24:49;;;;;;;19.52;7.75;;;8.10;99.90;;;;;;5065064;28;20027;-78
2020/12/17 05:27:16;;;;;;;15.50;6.90;;;8.10;99.90;;;;;;5066446;28;20024;-78
2020/12/17 05:29:42;;;;;;;12.02;6.95;;;8.10;99.90;;;;;;5066352;28;20033;-78
2020/12/17 05:32:11;;;;;;;13.18;6.75;;;8.10;99.90;;;;;;5066536;28;20027;-77
2020/12/17 05:34:37;;;;;;;11.32;6.13;;;8.10;99.90;;;;;;5064946;28;20029;-79
2020/12/17 05:37:06;;;;;;;16.90;7.03;;;8.10;99.90;;;;;;5066007;28;20037;-77
2020/12/17 05:39:32;;;;;;;10.00;5.53;;;8.10;99.90;;;;;;5064799;28;20021;-78
2020/12/17 05:41:57;;;;;;;13.32;7.63;;;8.00;99.90;;;;;;5064652;28;20066;-79
2020/12/17 05:44:28;;;;;;;7.88;5.10;;;8.10;99.90;;;;;;5064535;28;20457;-78
2020/12/17 05:46:55;;;;;;;13.48;6.53;;;8.10;99.90;;;;;;5065778;28;20017;-77
2020/12/17 05:49:26;;;;;;;15.50;6.68;;;8.10;99.90;;;;;;5064622;28;20020;-78
2020/12/17 05:52:20;;;;;;;13.68;5.72;;;8.10;99.90;;;;;;5064354;28;20029;-78
2020/12/17 05:54:52;;;;;;;14.13;6.60;;;8.10;99.90;;;;;;5065856;28;20024;-78
2020/12/17 05:57:18;;;;;;;15.35;7.32;;;8.10;99.90;;;;;;5064436;28;20068;-77
2020/12/17 05:59:55;;;;;;;13.52;6.45;;;8.10;99.90;;;;;;5064291;28;20033;-78
2020/12/17 06:02:24;;;;;;;13.88;6.65;;;8.10;99.90;;;;;;5064529;28;20414;-77
2020/12/17 06:05:14;;;;;;;12.15;6.85;;;8.10;99.90;;;;;;5065422;28;20041;-78
2020/12/17 06:07:48;;;;;;;13.45;7.45;;;8.10;99.90;;;;;;5065672;28;20025;-76
2020/12/17 06:10:21;;;;;;;14.60;6.30;;;8.00;99.90;;;;;;5064529;28;20041;-78
2020/12/17 06:12:52;;;;;;;16.88;6.80;;;8.10;99.90;;;;;;5065522;28;20045;-79
2020/12/17 06:15:20;;;;;;;10.50;5.97;;;8.10;99.90;;;;;;5064296;28;20029;-78
2020/12/17 06:17:54;;;;;;;15.95;7.65;;;8.00;99.90;;;;;;5064011;28;20043;-78
2020/12/17 06:20:22;;;;;;;13.82;7.22;;;8.00;99.90;;;;;;5063973;28;20020;-78
2020/12/17 06:22:51;;;;;;;12.00;6.65;;;8.00;99.90;;;;;;5063921;28;20028;-79
2020/12/17 06:25:18;;;;;;;13.55;6.38;;;7.90;99.90;;;;;;5065386;28;20016;-78
2020/12/17 06:27:49;;;;;;;15.95;7.15;;;8.00;99.90;;;;;;5065171;28;20047;-79
2020/12/17 06:30:20;;;;;;;16.67;7.10;;;8.00;99.90;;;;;;5065563;28;20017;-79
2020/12/17 06:32:47;;;;;;;14.18;6.78;;;8.00;99.90;;;;;;5063886;28;20074;-79
2020/12/17 06:35:20;;;;;;;10.80;7.03;;;8.00;99.90;;;;;;5063945;28;20104;-78
2020/12/17 06:37:48;;;;;;;17.17;6.00;;;8.00;99.90;;;;;;5063912;28;20036;-78
2020/12/17 06:40:23;;;;;;;11.57;6.40;;;7.90;99.90;;;;;;5064310;28;20051;-79
2020/12/17 06:42:49;;;;;;;14.45;6.57;;;8.00;99.90;;;;;;5044663;28;20025;-76
2020/12/17 06:45:34;;;;;;;15.57;7.00;;;8.00;99.90;;;;;;5044141;28;20064;-78
2020/12/17 06:48:20;;;;;;;13.65;7.32;;;8.00;99.90;;;;;;5044657;28;20021;-77
2020/12/17 06:50:46;;;;;;;16.52;8.38;;;8.00;99.90;;;;;;5043108;28;20028;-78
2020/12/17 06:53:18;;;;;;;15.65;7.35;;;8.00;99.90;;;;;;5043281;28;20029;-77
2020/12/17 06:55:57;;;;;;;11.88;6.43;;;8.10;99.90;;;;;;5044687;28;20033;-76
2020/12/17 06:58:24;;;;;;;14.35;7.35;;;8.10;99.90;;;;;;5043327;28;20486;-78
2020/12/17 07:00:52;;;;;;;12.15;5.60;;;8.00;99.90;;;;;;5044686;28;20053;-76
2020/12/17 07:03:51;;;;;;;14.38;6.93;;;8.10;99.90;;;;;;5044463;28;20024;-78
2020/12/17 07:06:22;;;;;;;15.25;6.43;;;8.00;99.90;;;;;;5043098;28;20064;-77
2020/12/17 07:08:56;;;;;;;17.92;7.00;;;8.00;99.90;;;;;;5042853;28;20369;-77
2020/12/17 07:11:48;;;;;;;12.57;6.97;;;8.00;99.90;;;;;;5043991;28;20028;-76
2020/12/17 07:14:25;;;;;;;14.88;7.15;;;8.00;99.90;;;;;;5046403;28;20037;-78
2020/12/17 07:17:02;;;;;;;17.38;7.50;;;8.00;99.90;;;;;;5048309;28;20045;-77
2020/12/17 07:19:30;;;;;;;9.95;5.55;;;8.00;99.90;;;;;;5048278;28;20018;-77
2020/12/17 07:22:03;;;;;;;18.40;7.30;;;8.10;99.90;;;;;;5047972;28;20029;-77
2020/12/17 07:24:32;;;;;;;15.57;7.53;;;8.00;99.90;;;;;;5048241;28;20056;-77
2020/12/17 07:27:00;;;;;;;12.65;5.57;;;8.00;99.90;;;;;;5046788;28;20116;-76
2020/12/17 07:29:51;;;;;;;12.75;5.88;;;8.10;99.90;;;;;;5048090;28;20021;-77
2020/12/17 07:32:27;;;;;;;17.45;7.05;;;8.10;99.90;;;;;;5046321;28;20034;-79
2020/12/17 07:35:16;;;;;;;15.50;6.95;;;8.10;99.90;;;;;;5046530;28;20029;-77
2020/12/17 07:37:55;;;;;;;13.38;5.70;;;8.10;99.90;;;;;;5046561;28;20101;-77
2020/12/17 07:40:31;;;;;;;27.05;6.97;;;8.10;99.90;;;;;;5046434;28;20025;-78
2020/12/17 07:43:06;;;;;;;13.63;6.20;;;8.10;99.90;;;;;;5046647;28;20018;-77
2020/12/17 07:45:39;;;;;;;14.80;6.60;;;8.10;99.90;;;;;;5046646;28;20033;-78
2020/12/17 07:48:31;;;;;;;12.75;6.38;;;8.10;99.90;;;;;;5046667;28;20245;-78
2020/12/17 07:50:57;;;;;;;17.60;6.30;;;8.10;99.90;;;;;;5047417;28;20025;-77
2020/12/17 07:53:24;;;;;;;12.48;6.00;;;8.10;99.90;;;;;;5047631;28;20029;-78
2020/12/17 07:55:51;;;;;;;16.60;7.32;;;8.20;99.90;;;;;;5047201;28;20092;-78
2020/12/17 07:58:17;;;;;;;16.27;6.47;;;8.20;99.90;;;;;;5046942;28;20358;-78
2020/12/17 08:00:43;;;;;;;15.63;6.15;;;8.20;99.90;;;;;;5047717;28;20025;-77
2020/12/17 08:03:10;;;;;;;12.10;6.13;;;8.30;99.90;;;;;;5063101;28;20025;-78
2020/12/17 08:05:36;;;;;;;11.73;6.60;;;8.30;99.90;;;;;;5067710;28;20049;-77
2020/12/17 08:08:01;;;;;;;11.82;5.53;;;8.30;99.90;;;;;;5063577;28;20021;-77
2020/12/17 08:10:27;;;;;;;14.45;8.07;;;8.40;99.90;;;;;;5066527;28;20021;-77
2020/12/17 08:12:53;;;;;;;14.20;6.55;;;8.50;99.90;;;;;;5067765;28;20386;-78
2020/12/17 08:15:20;;;;;;;10.40;5.45;;;8.50;99.90;;;;;;5066383;28;20028;-77
2020/12/17 08:17:48;;;;;;;15.95;6.47;;;8.50;99.90;;;;;;5066083;28;20037;-78
2020/12/17 08:20:20;;;;;;;15.23;5.63;;;8.50;99.90;;;;;;5067516;28;20021;-79
2020/12/17 08:22:46;;;;;;;15.82;7.13;;;8.50;99.90;;;;;;5067213;28;20027;-82
2020/12/17 08:25:11;;;;;;;14.82;7.07;;;8.60;99.90;;;;;;5064864;28;20028;-78
2020/12/17 08:27:37;;;;;;;16.00;6.55;;;8.60;99.90;;;;;;5066291;28;20017;-78
2020/12/17 08:30:03;;;;;;;14.57;6.32;;;8.60;99.90;;;;;;5064956;28;20087;-78
2020/12/17 08:32:30;;;;;;;14.07;6.32;;;8.50;99.90;;;;;;5065501;28;20079;-79
2020/12/17 08:34:57;;;;;;;11.20;5.53;;;8.60;99.90;;;;;;5066995;28;20081;-79
2020/12/17 08:37:26;;;;;;;12.15;6.53;;;8.60;99.90;;;;;;5066743;28;20135;-79
2020/12/17 08:39:59;;;;;;;18.05;6.68;;;8.60;99.90;;;;;;5065228;28;20021;-79
2020/12/17 08:42:31;;;;;;;12.38;6.90;;;8.70;99.90;;;;;;5066576;28;20029;-79
2020/12/17 08:45:02;;;;;;;13.80;7.22;;;8.70;99.90;;;;;;5066161;28;20025;-78
2020/12/17 08:47:32;;;;;;;13.38;6.40;;;8.70;99.90;;;;;;5065427;28;20047;-80
2020/12/17 08:50:01;;;;;;;14.20;6.35;;;8.80;99.90;;;;;;5065815;28;20029;-79
2020/12/17 08:52:27;;;;;;;10.40;5.75;;;8.70;99.90;;;;;;5065854;28;20044;-78
2020/12/17 08:55:10;;;;;;;15.45;6.55;;;8.70;99.90;;;;;;5065789;28;20045;-78
2020/12/17 08:57:36;;;;;;;14.68;6.70;;;8.70;99.90;;;;;;5064647;28;20071;-78
2020/12/17 09:00:06;;;;;;;11.43;6.03;;;8.80;99.90;;;;;;5058092;28;20038;-77
2020/12/17 09:02:32;;;;;;;10.80;6.05;;;8.80;99.90;;;;;;5057621;28;20017;-77
2020/12/17 09:05:03;;;;;;;11.40;7.00;;;8.80;99.90;;;;;;5057309;28;20113;-76
2020/12/17 09:07:35;;;;;;;16.85;6.60;;;8.80;99.90;;;;;;5062770;28;20017;-77
2020/12/17 09:10:11;;;;;;;12.73;6.80;;;8.80;99.90;;;;;;5063873;28;20017;-80
2020/12/17 09:12:36;;;;;;;9.27;5.85;;;8.80;99.90;;;;;;5063629;28;20051;-78
2020/12/17 09:15:10;;;;;;;16.27;6.03;;;8.80;99.90;;;;;;5063574;28;20024;-79
2020/12/17 09:17:37;;;;;;;10.20;6.38;;;8.80;99.90;;;;;;5065880;28;20037;-77
2020/12/17 09:20:17;;;;;;;11.93;6.13;;;8.80;99.90;;;;;;5063553;28;20036;-77
2020/12/17 09:22:43;;;;;;;11.48;6.13;;;8.90;99.90;;;;;;5065843;28;20028;-77
2020/12/17 09:25:09;;;;;;;18.80;6.18;;;8.90;99.90;;;;;;5067223;28;20025;-75
2020/12/17 09:27:38;;;;;;;15.43;6.93;;;8.90;99.90;;;;;;5069387;28;20025;-78
2020/12/17 09:30:16;;;;;;;16.95;6.35;;;8.90;99.90;;;;;;5064301;28;20029;-75
2020/12/17 09:32:50;;;;;;;11.18;5.78;;;9.00;99.90;;;;;;5064789;28;20071;-77
2020/12/17 09:35:16;;;;;;;10.77;5.88;;;8.90;99.90;;;;;;5064971;28;20021;-77
2020/12/17 09:38:01;;;;;;;12.25;5.95;;;8.90;99.90;;;;;;5065874;28;20167;-78
2020/12/17 09:40:27;;;;;;;9.68;4.93;;;8.90;99.90;;;;;;5064654;28;20021;-79
2020/12/17 09:43:08;;;;;;;14.07;6.20;;;9.00;99.90;;;;;;5064496;28;20248;-78
2020/12/17 09:45:36;;;;;;;11.40;4.72;;;9.00;99.90;;;;;;5064512;28;20037;-79
2020/12/17 09:48:19;;;;;;;19.17;6.68;;;9.00;99.90;;;;;;5064547;28;20059;-74
2020/12/17 09:51:00;;;;;;;16.23;6.80;;;9.00;99.90;;;;;;5064571;28;20084;-77
2020/12/17 09:53:26;;;;;;;11.63;6.07;;;9.00;99.90;;;;;;5065278;28;20021;-79
2020/12/17 09:55:52;;;;;;;11.68;5.60;;;9.00;99.90;;;;;;5063809;28;20059;-79
2020/12/17 09:58:18;;;;;;;14.48;5.95;;;9.10;99.90;;;;;;5049196;28;20022;-80
2020/12/17 10:00:49;;;;;;;11.60;5.47;;;9.10;99.90;;;;;;5064632;28;20021;-81
2020/12/17 10:03:18;;;;;;;15.88;6.53;;;9.10;99.90;;;;;;5065540;28;20025;-81
2020/12/17 10:05:45;;;;;;;32.78;6.15;;;9.10;99.90;;;;;;5065368;28;20049;-79
2020/12/17 10:08:11;;;;;;;15.57;6.50;;;9.10;99.90;;;;;;5064239;28;20434;-79
2020/12/17 10:10:37;;;;;;;11.85;4.95;;;9.20;99.90;;;;;;5064018;28;20036;-78
2020/12/17 10:13:06;;;;;;;11.73;6.28;;;9.20;99.90;;;;;;5065336;28;20024;-78
2020/12/17 10:15:32;;;;;;;12.55;5.32;;;9.20;99.90;;;;;;5064089;28;20042;-82
2020/12/17 10:17:58;;;;;;;15.23;5.88;;;9.20;99.90;;;;;;5063935;28;20025;-81
2020/12/17 10:20:24;;;;;;;10.65;5.53;;;9.20;99.90;;;;;;5064001;28;20017;-82
2020/12/17 10:22:50;;;;;;;12.73;5.65;;;9.30;99.90;;;;;;5063438;28;20025;-80
2020/12/17 10:25:18;;;;;;;13.77;5.63;;;9.30;99.90;;;;;;5063783;28;20020;-80
2020/12/17 10:27:46;;;;;;;11.65;6.32;;;9.30;99.90;;;;;;5063382;28;20049;-79
2020/12/17 10:30:12;;;;;;;9.85;4.97;;;9.30;99.90;;;;;;5063630;28;20036;-82
2020/12/17 10:32:38;;;;;;;6.63;4.53;;;9.30;99.90;;;;;;5063378;28;20021;-81
2020/12/17 10:35:05;;;;;;;8.88;4.85;;;9.30;99.90;;;;;;5063411;28;20029;-79
2020/12/17 10:37:31;;;;;;;8.88;4.90;;;9.40;99.90;;;;;;5064669;28;20381;-81
2020/12/17 10:39:57;;;;;;;8.48;4.38;;;9.40;99.90;;;;;;5057012;28;20049;-79
2020/12/17 10:42:23;;;;;;;6.65;4.22;;;9.30;99.90;;;;;;5050383;28;20024;-78
2020/12/17 10:44:49;;;;;;;10.25;5.47;;;9.40;99.90;;;;;;5053181;28;20056;-79
2020/12/17 10:47:19;;;;;;;7.25;4.28;;;9.50;99.90;;;;;;5051101;28;20021;-78
2020/12/17 10:49:49;;;;;;;9.73;4.20;;;9.50;99.90;;;;;;5052216;28;20033;-78
2020/12/17 10:52:18;;;;;;;8.43;4.60;;;9.50;99.90;;;;;;5050618;28;20032;-81
2020/12/17 10:54:45;;;;;;;6.30;3.42;;;9.50;99.90;;;;;;5052995;28;20029;-76
2020/12/17 10:57:11;;;;;;;8.80;4.45;;;9.50;99.90;;;;;;5051952;28;20104;-78
2020/12/17 10:59:36;;;;;;;4.85;3.38;;;9.50;99.90;;;;;;5050361;28;20037;-75
2020/12/17 11:02:02;;;;;;;7.13;3.50;;;9.50;99.90;;;;;;5053111;28;20454;-79
2020/12/17 11:04:27;;;;;;;7.63;4.30;;;9.60;99.90;;;;;;5051997;28;20104;-80
2020/12/17 11:07:01;;;;;;;6.47;4.00;;;9.60;99.90;;;;;;5048965;28;20052;-80
2020/12/17 11:09:26;;;;;;;8.07;4.07;;;9.60;99.90;;;;;;5067676;28;20028;-83
2020/12/17 11:11:53;;;;;;;6.28;3.47;;;9.60;99.90;;;;;;5050625;28;20022;-83
2020/12/17 11:14:19;;;;;;;5.85;3.58;;;9.60;99.90;;;;;;5051385;28;20032;-82
2020/12/17 11:16:53;;;;;;;6.50;3.97;;;9.60;99.90;;;;;;5050485;28;20064;-83
2020/12/17 11:19:19;;;;;;;9.13;3.95;;;9.70;99.90;;;;;;5052554;28;20151;-81
2020/12/17 11:21:57;;;;;;;7.30;3.67;;;9.80;99.90;;;;;;5050383;28;20032;-82
2020/12/17 11:24:31;;;;;;;5.93;3.65;;;9.80;99.90;;;;;;5050697;28;20025;-80
2020/12/17 11:26:57;;;;;;;7.60;4.18;;;9.90;99.90;;;;;;5047752;28;20029;-79
2020/12/17 11:29:25;;;;;;;5.18;2.85;;;10.10;99.90;;;;;;5049304;28;20025;-81
2020/12/17 11:31:51;;;;;;;4.38;2.95;;;10.40;99.90;;;;;;5048075;28;20030;-79
2020/12/17 11:34:19;;;;;;;6.68;4.10;;;10.50;99.90;;;;;;5050045;28;20060;-80
2020/12/17 11:36:48;;;;;;;4.22;2.65;;;10.70;99.90;;;;;;5051054;28;20068;-78
2020/12/17 11:39:14;;;;;;;4.57;1.88;;;10.60;99.90;;;;;;5047137;28;20490;-80
2020/12/17 11:41:45;;;;;;;3.28;2.28;;;10.60;99.90;;;;;;5047451;28;20030;-84
2020/12/17 11:44:11;;;;;;;3.00;1.73;;;10.50;99.90;;;;;;5043921;28;20075;-78
2020/12/17 11:46:37;;;;;;;4.15;1.85;;;10.70;99.90;;;;;;5051400;28;20203;-78
2020/12/17 11:49:20;;;;;;;;;;;;;;;;;;;;;
2020/12/17 11:51:52;;;;;;;3.25;2.17;;;10.60;99.90;;;;;;5051182;28;20097;-87
2020/12/17 11:54:24;;;;;;;2.17;1.42;;;10.70;99.90;;;;;;5048561;28;20131;-86
2020/12/17 11:56:51;;;;;;;6.50;1.83;;;10.30;99.90;;;;;;5063015;28;20174;-82
2020/12/17 11:59:19;;;;;;;4.53;2.03;;;10.30;99.90;;;;;;5052047;28;20048;-80
2020/12/17 12:01:51;;;;;;;2.58;2.03;;;10.30;99.90;;;;;;5054022;28;20036;-81
2020/12/17 12:04:16;;;;;;;3.13;2.10;;;10.20;99.90;;;;;;5053692;28;20481;-80
2020/12/17 12:06:42;;;;;;;3.50;2.45;;;10.20;99.90;;;;;;5053787;28;20013;-78
2020/12/17 12:09:08;;;;;;;4.88;2.72;;;10.10;99.90;;;;;;5053727;28;20048;-81
2020/12/17 12:11:34;;;;;;;5.93;2.38;;;10.10;99.90;;;;;;5062179;28;20051;-81
2020/12/17 12:14:00;;;;;;;5.35;2.88;;;10.10;99.90;;;;;;5063021;28;20035;-81
2020/12/17 12:16:25;;;;;;;6.22;2.92;;;10.00;99.90;;;;;;5063832;28;20041;-79
2020/12/17 12:18:51;;;;;;;6.20;3.22;;;10.00;99.90;;;;;;5064303;28;20028;-82
2020/12/17 12:21:18;;;;;;;3.30;2.45;;;10.00;99.90;;;;;;5064895;28;20021;-80
2020/12/17 12:23:50;;;;;;;7.57;2.90;;;10.00;99.90;;;;;;5053820;28;20052;-81
2020/12/17 12:26:19;;;;;;;4.15;2.72;;;10.00;99.90;;;;;;5055026;28;20154;-78
2020/12/17 12:28:46;;;;;;;4.70;2.63;;;9.90;99.90;;;;;;5054219;28;20097;-79
2020/12/17 12:31:25;;;;;;;6.60;3.00;;;9.90;99.90;;;;;;5052865;28;20026;-79
2020/12/17 12:33:54;;;;;;;3.53;2.10;;;9.90;99.90;;;;;;5070074;28;20029;-79
2020/12/17 12:36:20;;;;;;;5.18;2.67;;;9.90;99.90;;;;;;5053286;28;20062;-77
2020/12/17 12:39:07;;;;;;;4.88;2.83;;;9.90;99.90;;;;;;5053606;28;20040;-81
2020/12/17 12:41:33;;;;;;;4.20;2.47;;;9.90;99.90;;;;;;5052649;28;20585;-77
2020/12/17 12:43:58;;;;;;;4.20;2.08;;;9.90;99.90;;;;;;5053646;28;20049;-77
2020/12/17 12:46:24;;;;;;;5.47;2.97;;;9.90;99.90;;;;;;5054372;28;20022;-78
2020/12/17 12:48:50;;;;;;;5.72;2.75;;;9.90;99.90;;;;;;5053310;28;20013;-79
2020/12/17 12:51:19;;;;;;;5.30;3.15;;;10.00;99.90;;;;;;5054896;28;20332;-80
2020/12/17 12:53:47;;;;;;;3.25;2.00;;;10.00;99.90;;;;;;5051474;28;20056;-78
2020/12/17 12:56:12;;;;;;;6.35;2.85;;;10.00;99.90;;;;;;5054596;28;20052;-78